sensor_id;sensor_type;location;lat;lon;timestamp;P1;durP1;ratioP1;P2;durP2;ratioP2
10389;SDS011;5241;47.830;12.972;2023-04-06T00:00:21;15.70;;;8.17;;
10389;SDS011;5241;47.830;12.972;2023-04-06T00:02:48;11.50;;;8.03;;
10389;SDS011;5241;47.830;12.972;2023-04-06T00:05:13;13.33;;;8.03;;
10389;SDS011;5241;47.830;12.972;2023-04-06T00:07:39;13.73;;;8.77;;
10389;SDS011;5241;47.830;12.972;2023-04-06T00:10:05;16.23;;;8.63;;
10389;SDS011;5241;47.830;12.972;2023-04-06T00:12:31;14.30;;;8.33;;
10389;SDS011;5241;47.830;12.972;2023-04-06T00:14:57;13.03;;;8.93;;
10389;SDS011;5241;47.830;12.972;2023-04-06T00:17:22;12.73;;;8.80;;
10389;SDS011;5241;47.830;12.972;2023-04-06T00:19:48;13.17;;;8.50;;
10389;SDS011;5241;47.830;12.972;2023-04-06T00:22:13;13.37;;;9.03;;
10389;SDS011;5241;47.830;12.972;2023-04-06T00:24:39;12.47;;;8.40;;
10389;SDS011;5241;47.830;12.972;2023-04-06T00:27:05;13.27;;;8.20;;
10389;SDS011;5241;47.830;12.972;2023-04-06T00:29:30;12.73;;;8.90;;
10389;SDS011;5241;47.830;12.972;2023-04-06T00:31:56;14.33;;;9.53;;
10389;SDS011;5241;47.830;12.972;2023-04-06T00:34:21;11.60;;;8.90;;
10389;SDS011;5241;47.830;12.972;2023-04-06T00:36:47;14.93;;;8.67;;
10389;SDS011;5241;47.830;12.972;2023-04-06T00:39:12;14.40;;;9.40;;
10389;SDS011;5241;47.830;12.972;2023-04-06T00:41:38;13.23;;;8.40;;
10389;SDS011;5241;47.830;12.972;2023-04-06T00:44:05;14.43;;;10.20;;
10389;SDS011;5241;47.830;12.972;2023-04-06T00:46:31;13.30;;;9.03;;
10389;SDS011;5241;47.830;12.972;2023-04-06T00:48:57;12.77;;;9.17;;
10389;SDS011;5241;47.830;12.972;2023-04-06T00:51:22;17.10;;;10.13;;
10389;SDS011;5241;47.830;12.972;2023-04-06T00:53:48;14.07;;;10.30;;
10389;SDS011;5241;47.830;12.972;2023-04-06T00:56:13;14.37;;;10.43;;
10389;SDS011;5241;47.830;12.972;2023-04-06T00:58:39;13.83;;;9.33;;
10389;SDS011;5241;47.830;12.972;2023-04-06T01:01:05;12.97;;;9.07;;
10389;SDS011;5241;47.830;12.972;2023-04-06T01:03:31;13.67;;;8.73;;
10389;SDS011;5241;47.830;12.972;2023-04-06T01:05:56;13.87;;;9.30;;
10389;SDS011;5241;47.830;12.972;2023-04-06T01:08:23;12.30;;;8.97;;
10389;SDS011;5241;47.830;12.972;2023-04-06T01:10:49;13.43;;;9.13;;
10389;SDS011;5241;47.830;12.972;2023-04-06T01:13:15;14.50;;;9.53;;
10389;SDS011;5241;47.830;12.972;2023-04-06T01:15:41;14.03;;;9.73;;
10389;SDS011;5241;47.830;12.972;2023-04-06T01:18:10;16.87;;;9.43;;
10389;SDS011;5241;47.830;12.972;2023-04-06T01:20:36;11.57;;;8.40;;
10389;SDS011;5241;47.830;12.972;2023-04-06T01:23:01;13.93;;;9.20;;
10389;SDS011;5241;47.830;12.972;2023-04-06T01:25:27;14.43;;;9.67;;
10389;SDS011;5241;47.830;12.972;2023-04-06T01:27:52;11.73;;;9.17;;
10389;SDS011;5241;47.830;12.972;2023-04-06T01:30:18;12.83;;;9.33;;
10389;SDS011;5241;47.830;12.972;2023-04-06T01:32:43;11.33;;;8.43;;
10389;SDS011;5241;47.830;12.972;2023-04-06T01:35:09;13.07;;;8.97;;
10389;SDS011;5241;47.830;12.972;2023-04-06T01:37:35;15.93;;;9.13;;
10389;SDS011;5241;47.830;12.972;2023-04-06T01:40:02;11.57;;;8.67;;
10389;SDS011;5241;47.830;12.972;2023-04-06T01:42:28;13.33;;;9.40;;
10389;SDS011;5241;47.830;12.972;2023-04-06T01:44:55;11.97;;;8.80;;
10389;SDS011;5241;47.830;12.972;2023-04-06T01:47:20;13.73;;;9.13;;
10389;SDS011;5241;47.830;12.972;2023-04-06T01:49:46;15.63;;;9.00;;
10389;SDS011;5241;47.830;12.972;2023-04-06T01:52:11;11.73;;;9.27;;
10389;SDS011;5241;47.830;12.972;2023-04-06T01:54:37;13.93;;;9.37;;
10389;SDS011;5241;47.830;12.972;2023-04-06T01:57:02;13.40;;;9.00;;
10389;SDS011;5241;47.830;12.972;2023-04-06T01:59:28;11.80;;;8.17;;
10389;SDS011;5241;47.830;12.972;2023-04-06T02:01:54;13.33;;;9.07;;
10389;SDS011;5241;47.830;12.972;2023-04-06T02:04:19;10.33;;;7.73;;
10389;SDS011;5241;47.830;12.972;2023-04-06T02:06:46;14.17;;;8.43;;
10389;SDS011;5241;47.830;12.972;2023-04-06T02:09:11;13.70;;;9.00;;
10389;SDS011;5241;47.830;12.972;2023-04-06T02:11:37;14.23;;;9.97;;
10389;SDS011;5241;47.830;12.972;2023-04-06T02:14:02;14.07;;;9.43;;
10389;SDS011;5241;47.830;12.972;2023-04-06T02:16:28;12.87;;;9.67;;
10389;SDS011;5241;47.830;12.972;2023-04-06T02:18:53;13.60;;;8.87;;
10389;SDS011;5241;47.830;12.972;2023-04-06T02:21:19;13.33;;;9.37;;
10389;SDS011;5241;47.830;12.972;2023-04-06T02:23:45;14.37;;;8.43;;
10389;SDS011;5241;47.830;12.972;2023-04-06T02:26:12;13.97;;;9.43;;
10389;SDS011;5241;47.830;12.972;2023-04-06T02:28:38;13.17;;;9.03;;
10389;SDS011;5241;47.830;12.972;2023-04-06T02:31:03;14.20;;;9.20;;
10389;SDS011;5241;47.830;12.972;2023-04-06T02:33:29;13.33;;;9.23;;
10389;SDS011;5241;47.830;12.972;2023-04-06T02:35:54;12.87;;;9.67;;
10389;SDS011;5241;47.830;12.972;2023-04-06T02:38:20;15.57;;;9.73;;
10389;SDS011;5241;47.830;12.972;2023-04-06T02:40:45;14.17;;;9.87;;
10389;SDS011;5241;47.830;12.972;2023-04-06T02:43:11;14.67;;;9.30;;
10389;SDS011;5241;47.830;12.972;2023-04-06T02:45:36;13.13;;;9.30;;
10389;SDS011;5241;47.830;12.972;2023-04-06T02:48:02;12.60;;;10.00;;
10389;SDS011;5241;47.830;12.972;2023-04-06T02:50:28;13.70;;;9.20;;
10389;SDS011;5241;47.830;12.972;2023-04-06T02:52:53;14.40;;;8.77;;
10389;SDS011;5241;47.830;12.972;2023-04-06T02:55:19;11.80;;;9.03;;
10389;SDS011;5241;47.830;12.972;2023-04-06T02:57:45;14.10;;;9.10;;
10389;SDS011;5241;47.830;12.972;2023-04-06T03:00:11;12.97;;;9.20;;
10389;SDS011;5241;47.830;12.972;2023-04-06T03:02:37;11.70;;;8.80;;
10389;SDS011;5241;47.830;12.972;2023-04-06T03:05:03;15.20;;;8.60;;
10389;SDS011;5241;47.830;12.972;2023-04-06T03:07:29;11.47;;;8.43;;
10389;SDS011;5241;47.830;12.972;2023-04-06T03:09:54;13.60;;;8.90;;
10389;SDS011;5241;47.830;12.972;2023-04-06T03:12:20;13.13;;;8.67;;
10389;SDS011;5241;47.830;12.972;2023-04-06T03:14:46;12.60;;;9.23;;
10389;SDS011;5241;47.830;12.972;2023-04-06T03:17:11;15.97;;;9.23;;
10389;SDS011;5241;47.830;12.972;2023-04-06T03:19:37;14.90;;;9.53;;
10389;SDS011;5241;47.830;12.972;2023-04-06T03:22:02;13.77;;;9.20;;
10389;SDS011;5241;47.830;12.972;2023-04-06T03:24:28;12.57;;;8.70;;
10389;SDS011;5241;47.830;12.972;2023-04-06T03:26:53;14.07;;;9.43;;
10389;SDS011;5241;47.830;12.972;2023-04-06T03:29:19;14.23;;;8.40;;
10389;SDS011;5241;47.830;12.972;2023-04-06T03:31:45;13.47;;;9.17;;
10389;SDS011;5241;47.830;12.972;2023-04-06T03:34:10;13.27;;;9.30;;
10389;SDS011;5241;47.830;12.972;2023-04-06T03:36:36;16.20;;;9.73;;
10389;SDS011;5241;47.830;12.972;2023-04-06T03:39:02;12.57;;;9.40;;
10389;SDS011;5241;47.830;12.972;2023-04-06T03:41:27;12.03;;;8.20;;
10389;SDS011;5241;47.830;12.972;2023-04-06T03:43:53;12.20;;;8.43;;
10389;SDS011;5241;47.830;12.972;2023-04-06T03:46:18;12.73;;;8.63;;
10389;SDS011;5241;47.830;12.972;2023-04-06T03:48:45;13.83;;;8.33;;
10389;SDS011;5241;47.830;12.972;2023-04-06T03:51:12;14.60;;;9.93;;
10389;SDS011;5241;47.830;12.972;2023-04-06T03:53:38;14.73;;;8.90;;
10389;SDS011;5241;47.830;12.972;2023-04-06T03:56:04;14.67;;;9.60;;
10389;SDS011;5241;47.830;12.972;2023-04-06T03:58:30;14.20;;;9.90;;
10389;SDS011;5241;47.830;12.972;2023-04-06T04:00:55;14.90;;;9.27;;
10389;SDS011;5241;47.830;12.972;2023-04-06T04:03:21;14.23;;;9.20;;
10389;SDS011;5241;47.830;12.972;2023-04-06T04:05:48;14.37;;;9.13;;
10389;SDS011;5241;47.830;12.972;2023-04-06T04:08:15;12.53;;;8.67;;
10389;SDS011;5241;47.830;12.972;2023-04-06T04:10:40;14.30;;;9.63;;
10389;SDS011;5241;47.830;12.972;2023-04-06T04:13:06;13.83;;;8.87;;
10389;SDS011;5241;47.830;12.972;2023-04-06T04:15:31;14.67;;;8.50;;
10389;SDS011;5241;47.830;12.972;2023-04-06T04:17:57;14.73;;;9.07;;
10389;SDS011;5241;47.830;12.972;2023-04-06T04:20:22;14.77;;;9.53;;
10389;SDS011;5241;47.830;12.972;2023-04-06T04:22:48;12.73;;;8.77;;
10389;SDS011;5241;47.830;12.972;2023-04-06T04:25:13;15.33;;;9.40;;
10389;SDS011;5241;47.830;12.972;2023-04-06T04:27:39;14.07;;;10.13;;
10389;SDS011;5241;47.830;12.972;2023-04-06T04:30:05;15.40;;;9.23;;
10389;SDS011;5241;47.830;12.972;2023-04-06T04:32:31;15.43;;;9.53;;
10389;SDS011;5241;47.830;12.972;2023-04-06T04:34:56;16.90;;;9.70;;
10389;SDS011;5241;47.830;12.972;2023-04-06T04:37:22;16.30;;;9.87;;
10389;SDS011;5241;47.830;12.972;2023-04-06T04:39:47;17.57;;;10.63;;
10389;SDS011;5241;47.830;12.972;2023-04-06T04:42:13;13.77;;;9.33;;
10389;SDS011;5241;47.830;12.972;2023-04-06T04:44:39;17.70;;;11.33;;
10389;SDS011;5241;47.830;12.972;2023-04-06T04:47:04;17.10;;;10.77;;
10389;SDS011;5241;47.830;12.972;2023-04-06T04:49:30;17.40;;;11.00;;
10389;SDS011;5241;47.830;12.972;2023-04-06T04:51:56;15.93;;;10.50;;
10389;SDS011;5241;47.830;12.972;2023-04-06T04:54:21;17.60;;;11.43;;
10389;SDS011;5241;47.830;12.972;2023-04-06T04:56:47;14.30;;;10.50;;
10389;SDS011;5241;47.830;12.972;2023-04-06T04:59:13;16.23;;;10.67;;
10389;SDS011;5241;47.830;12.972;2023-04-06T05:01:38;22.80;;;9.87;;
10389;SDS011;5241;47.830;12.972;2023-04-06T05:04:04;17.03;;;9.87;;
10389;SDS011;5241;47.830;12.972;2023-04-06T05:06:30;19.73;;;9.73;;
10389;SDS011;5241;47.830;12.972;2023-04-06T05:08:55;15.90;;;9.87;;
10389;SDS011;5241;47.830;12.972;2023-04-06T05:11:21;25.07;;;13.60;;
10389;SDS011;5241;47.830;12.972;2023-04-06T05:13:47;25.63;;;13.87;;
10389;SDS011;5241;47.830;12.972;2023-04-06T05:16:12;22.53;;;12.17;;
10389;SDS011;5241;47.830;12.972;2023-04-06T05:18:38;25.70;;;13.50;;
10389;SDS011;5241;47.830;12.972;2023-04-06T05:21:03;19.87;;;11.73;;
10389;SDS011;5241;47.830;12.972;2023-04-06T05:23:29;18.20;;;11.73;;
10389;SDS011;5241;47.830;12.972;2023-04-06T05:25:55;18.47;;;10.97;;
10389;SDS011;5241;47.830;12.972;2023-04-06T05:28:20;18.33;;;10.80;;
10389;SDS011;5241;47.830;12.972;2023-04-06T05:30:46;18.43;;;11.00;;
10389;SDS011;5241;47.830;12.972;2023-04-06T05:33:12;22.73;;;11.13;;
10389;SDS011;5241;47.830;12.972;2023-04-06T05:35:38;18.60;;;11.20;;
10389;SDS011;5241;47.830;12.972;2023-04-06T05:38:03;22.33;;;13.20;;
10389;SDS011;5241;47.830;12.972;2023-04-06T05:40:30;23.37;;;13.43;;
10389;SDS011;5241;47.830;12.972;2023-04-06T05:42:56;20.40;;;12.47;;
10389;SDS011;5241;47.830;12.972;2023-04-06T05:45:22;18.80;;;11.63;;
10389;SDS011;5241;47.830;12.972;2023-04-06T05:47:48;19.87;;;10.43;;
10389;SDS011;5241;47.830;12.972;2023-04-06T05:50:14;17.13;;;10.27;;
10389;SDS011;5241;47.830;12.972;2023-04-06T05:52:40;16.43;;;10.20;;
10389;SDS011;5241;47.830;12.972;2023-04-06T05:55:08;17.73;;;9.60;;
10389;SDS011;5241;47.830;12.972;2023-04-06T05:57:34;18.10;;;10.03;;
10389;SDS011;5241;47.830;12.972;2023-04-06T06:00:00;16.93;;;9.63;;
10389;SDS011;5241;47.830;12.972;2023-04-06T06:02:26;17.50;;;9.53;;
10389;SDS011;5241;47.830;12.972;2023-04-06T06:04:51;17.77;;;10.07;;
10389;SDS011;5241;47.830;12.972;2023-04-06T06:07:17;19.33;;;10.33;;
10389;SDS011;5241;47.830;12.972;2023-04-06T06:09:42;12.87;;;9.77;;
10389;SDS011;5241;47.830;12.972;2023-04-06T06:12:08;19.80;;;9.27;;
10389;SDS011;5241;47.830;12.972;2023-04-06T06:14:33;15.40;;;8.90;;
10389;SDS011;5241;47.830;12.972;2023-04-06T06:16:59;15.37;;;9.97;;
10389;SDS011;5241;47.830;12.972;2023-04-06T06:19:25;19.80;;;9.00;;
10389;SDS011;5241;47.830;12.972;2023-04-06T06:21:50;17.07;;;8.60;;
10389;SDS011;5241;47.830;12.972;2023-04-06T06:24:16;13.03;;;8.23;;
10389;SDS011;5241;47.830;12.972;2023-04-06T06:26:41;12.77;;;9.27;;
10389;SDS011;5241;47.830;12.972;2023-04-06T06:29:08;17.77;;;8.90;;
10389;SDS011;5241;47.830;12.972;2023-04-06T06:31:33;10.13;;;8.17;;
10389;SDS011;5241;47.830;12.972;2023-04-06T06:33:59;15.63;;;8.40;;
10389;SDS011;5241;47.830;12.972;2023-04-06T06:36:25;14.57;;;8.17;;
10389;SDS011;5241;47.830;12.972;2023-04-06T06:38:50;13.23;;;8.40;;
10389;SDS011;5241;47.830;12.972;2023-04-06T06:41:16;13.90;;;8.87;;
10389;SDS011;5241;47.830;12.972;2023-04-06T06:43:42;12.53;;;7.87;;
10389;SDS011;5241;47.830;12.972;2023-04-06T06:46:07;17.13;;;8.57;;
10389;SDS011;5241;47.830;12.972;2023-04-06T06:48:33;8.63;;;7.43;;
10389;SDS011;5241;47.830;12.972;2023-04-06T06:50:58;9.87;;;7.63;;
10389;SDS011;5241;47.830;12.972;2023-04-06T06:53:24;11.50;;;8.20;;
10389;SDS011;5241;47.830;12.972;2023-04-06T06:55:49;9.87;;;7.80;;
10389;SDS011;5241;47.830;12.972;2023-04-06T06:58:17;11.07;;;7.27;;
10389;SDS011;5241;47.830;12.972;2023-04-06T07:00:43;11.57;;;6.97;;
10389;SDS011;5241;47.830;12.972;2023-04-06T07:03:08;11.30;;;7.40;;
10389;SDS011;5241;47.830;12.972;2023-04-06T07:05:34;11.17;;;7.20;;
10389;SDS011;5241;47.830;12.972;2023-04-06T07:08:00;13.63;;;6.80;;
10389;SDS011;5241;47.830;12.972;2023-04-06T07:10:26;7.83;;;6.67;;
10389;SDS011;5241;47.830;12.972;2023-04-06T07:12:51;10.73;;;6.03;;
10389;SDS011;5241;47.830;12.972;2023-04-06T07:15:17;6.13;;;5.53;;
10389;SDS011;5241;47.830;12.972;2023-04-06T07:17:43;8.03;;;5.70;;
10389;SDS011;5241;47.830;12.972;2023-04-06T07:20:10;11.87;;;6.27;;
10389;SDS011;5241;47.830;12.972;2023-04-06T07:22:37;9.70;;;5.40;;
10389;SDS011;5241;47.830;12.972;2023-04-06T07:25:03;10.93;;;5.83;;
10389;SDS011;5241;47.830;12.972;2023-04-06T07:27:29;9.70;;;6.50;;
10389;SDS011;5241;47.830;12.972;2023-04-06T07:29:55;8.17;;;5.33;;
10389;SDS011;5241;47.830;12.972;2023-04-06T07:32:20;7.03;;;5.10;;
10389;SDS011;5241;47.830;12.972;2023-04-06T07:34:46;7.03;;;5.00;;
10389;SDS011;5241;47.830;12.972;2023-04-06T07:37:12;6.90;;;4.90;;
10389;SDS011;5241;47.830;12.972;2023-04-06T07:39:37;7.03;;;5.47;;
10389;SDS011;5241;47.830;12.972;2023-04-06T07:42:03;5.70;;;4.90;;
10389;SDS011;5241;47.830;12.972;2023-04-06T07:44:28;7.30;;;5.30;;
10389;SDS011;5241;47.830;12.972;2023-04-06T07:46:54;7.00;;;5.67;;
10389;SDS011;5241;47.830;12.972;2023-04-06T07:49:19;9.23;;;5.37;;
10389;SDS011;5241;47.830;12.972;2023-04-06T07:51:46;5.70;;;5.10;;
10389;SDS011;5241;47.830;12.972;2023-04-06T07:54:11;5.40;;;4.73;;
10389;SDS011;5241;47.830;12.972;2023-04-06T07:56:37;6.67;;;4.87;;
10389;SDS011;5241;47.830;12.972;2023-04-06T07:59:02;6.77;;;4.77;;
10389;SDS011;5241;47.830;12.972;2023-04-06T08:01:28;8.40;;;4.90;;
10389;SDS011;5241;47.830;12.972;2023-04-06T08:03:55;7.47;;;5.10;;
10389;SDS011;5241;47.830;12.972;2023-04-06T08:06:21;9.37;;;5.10;;
10389;SDS011;5241;47.830;12.972;2023-04-06T08:08:47;6.70;;;4.97;;
10389;SDS011;5241;47.830;12.972;2023-04-06T08:11:12;6.57;;;4.80;;
10389;SDS011;5241;47.830;12.972;2023-04-06T08:13:38;6.63;;;4.90;;
10389;SDS011;5241;47.830;12.972;2023-04-06T08:16:03;7.00;;;5.30;;
10389;SDS011;5241;47.830;12.972;2023-04-06T08:18:29;8.90;;;5.83;;
10389;SDS011;5241;47.830;12.972;2023-04-06T08:20:55;9.20;;;6.43;;
10389;SDS011;5241;47.830;12.972;2023-04-06T08:23:21;8.63;;;6.73;;
10389;SDS011;5241;47.830;12.972;2023-04-06T08:25:47;9.13;;;6.43;;
10389;SDS011;5241;47.830;12.972;2023-04-06T08:28:12;7.60;;;6.80;;
10389;SDS011;5241;47.830;12.972;2023-04-06T08:30:44;7.90;;;6.57;;
10389;SDS011;5241;47.830;12.972;2023-04-06T08:33:10;9.93;;;6.57;;
10389;SDS011;5241;47.830;12.972;2023-04-06T08:35:36;7.40;;;6.20;;
10389;SDS011;5241;47.830;12.972;2023-04-06T08:38:01;7.70;;;5.70;;
10389;SDS011;5241;47.830;12.972;2023-04-06T08:40:27;7.57;;;6.03;;
10389;SDS011;5241;47.830;12.972;2023-04-06T08:42:54;7.70;;;6.40;;
10389;SDS011;5241;47.830;12.972;2023-04-06T08:45:21;7.77;;;6.37;;
10389;SDS011;5241;47.830;12.972;2023-04-06T08:47:50;8.87;;;5.97;;
10389;SDS011;5241;47.830;12.972;2023-04-06T08:50:17;8.10;;;6.30;;
10389;SDS011;5241;47.830;12.972;2023-04-06T08:52:46;9.57;;;6.37;;
10389;SDS011;5241;47.830;12.972;2023-04-06T08:55:13;8.27;;;5.30;;
10389;SDS011;5241;47.830;12.972;2023-04-06T08:57:40;5.90;;;4.73;;
10389;SDS011;5241;47.830;12.972;2023-04-06T09:00:07;7.50;;;5.30;;
10389;SDS011;5241;47.830;12.972;2023-04-06T09:02:36;6.20;;;4.90;;
10389;SDS011;5241;47.830;12.972;2023-04-06T09:05:05;6.07;;;5.47;;
10389;SDS011;5241;47.830;12.972;2023-04-06T09:07:33;6.73;;;5.40;;
10389;SDS011;5241;47.830;12.972;2023-04-06T09:10:00;6.23;;;5.30;;
10389;SDS011;5241;47.830;12.972;2023-04-06T09:12:26;7.67;;;5.07;;
10389;SDS011;5241;47.830;12.972;2023-04-06T09:14:53;5.67;;;4.40;;
10389;SDS011;5241;47.830;12.972;2023-04-06T09:17:19;5.60;;;4.63;;
10389;SDS011;5241;47.830;12.972;2023-04-06T09:19:46;5.77;;;5.00;;
10389;SDS011;5241;47.830;12.972;2023-04-06T09:22:12;5.63;;;4.87;;
10389;SDS011;5241;47.830;12.972;2023-04-06T09:24:47;9.17;;;5.13;;
10389;SDS011;5241;47.830;12.972;2023-04-06T09:27:15;5.77;;;4.73;;
10389;SDS011;5241;47.830;12.972;2023-04-06T09:29:41;6.23;;;4.63;;
10389;SDS011;5241;47.830;12.972;2023-04-06T09:32:07;7.93;;;4.57;;
10389;SDS011;5241;47.830;12.972;2023-04-06T09:34:37;5.13;;;4.63;;
10389;SDS011;5241;47.830;12.972;2023-04-06T09:37:13;5.97;;;4.40;;
10389;SDS011;5241;47.830;12.972;2023-04-06T09:39:39;5.33;;;4.50;;
10389;SDS011;5241;47.830;12.972;2023-04-06T09:42:04;5.23;;;4.53;;
10389;SDS011;5241;47.830;12.972;2023-04-06T09:44:30;5.47;;;4.90;;
10389;SDS011;5241;47.830;12.972;2023-04-06T09:46:55;6.00;;;4.70;;
10389;SDS011;5241;47.830;12.972;2023-04-06T09:49:21;4.63;;;4.10;;
10389;SDS011;5241;47.830;12.972;2023-04-06T09:51:53;4.70;;;4.20;;
10389;SDS011;5241;47.830;12.972;2023-04-06T09:54:21;5.80;;;4.90;;
10389;SDS011;5241;47.830;12.972;2023-04-06T09:56:56;5.40;;;4.70;;
10389;SDS011;5241;47.830;12.972;2023-04-06T09:59:35;7.67;;;5.00;;
10389;SDS011;5241;47.830;12.972;2023-04-06T10:02:22;6.50;;;5.00;;
10389;SDS011;5241;47.830;12.972;2023-04-06T10:04:58;6.23;;;5.57;;
10389;SDS011;5241;47.830;12.972;2023-04-06T10:07:30;7.37;;;5.13;;
10389;SDS011;5241;47.830;12.972;2023-04-06T10:09:56;7.10;;;5.50;;
10389;SDS011;5241;47.830;12.972;2023-04-06T10:12:25;5.80;;;5.20;;
10389;SDS011;5241;47.830;12.972;2023-04-06T10:14:50;5.83;;;5.23;;
10389;SDS011;5241;47.830;12.972;2023-04-06T10:17:16;5.73;;;5.17;;
10389;SDS011;5241;47.830;12.972;2023-04-06T10:22:39;6.57;;;5.33;;
10389;SDS011;5241;47.830;12.972;2023-04-06T10:25:15;8.63;;;5.67;;
10389;SDS011;5241;47.830;12.972;2023-04-06T10:27:41;7.03;;;5.53;;
10389;SDS011;5241;47.830;12.972;2023-04-06T10:30:07;7.47;;;5.50;;
10389;SDS011;5241;47.830;12.972;2023-04-06T10:32:33;6.37;;;5.77;;
10389;SDS011;5241;47.830;12.972;2023-04-06T10:35:07;7.30;;;5.90;;
10389;SDS011;5241;47.830;12.972;2023-04-06T10:37:46;5.87;;;5.30;;
10389;SDS011;5241;47.830;12.972;2023-04-06T10:40:24;6.27;;;5.40;;
10389;SDS011;5241;47.830;12.972;2023-04-06T10:42:54;6.60;;;5.90;;
10389;SDS011;5241;47.830;12.972;2023-04-06T10:45:21;6.57;;;5.83;;
10389;SDS011;5241;47.830;12.972;2023-04-06T10:47:48;7.40;;;5.80;;
10389;SDS011;5241;47.830;12.972;2023-04-06T10:50:14;6.63;;;5.47;;
10389;SDS011;5241;47.830;12.972;2023-04-06T10:52:43;6.20;;;5.60;;
10389;SDS011;5241;47.830;12.972;2023-04-06T10:55:10;5.67;;;5.07;;
10389;SDS011;5241;47.830;12.972;2023-04-06T10:57:38;6.23;;;5.63;;
10389;SDS011;5241;47.830;12.972;2023-04-06T11:00:04;6.73;;;5.73;;
10389;SDS011;5241;47.830;12.972;2023-04-06T11:02:31;6.50;;;5.87;;
10389;SDS011;5241;47.830;12.972;2023-04-06T11:04:57;8.10;;;6.10;;
10389;SDS011;5241;47.830;12.972;2023-04-06T11:07:26;6.73;;;5.87;;
10389;SDS011;5241;47.830;12.972;2023-04-06T11:09:54;6.53;;;5.70;;
10389;SDS011;5241;47.830;12.972;2023-04-06T11:12:23;8.03;;;5.80;;
10389;SDS011;5241;47.830;12.972;2023-04-06T11:14:56;7.80;;;5.67;;
10389;SDS011;5241;47.830;12.972;2023-04-06T11:17:29;6.33;;;5.70;;
10389;SDS011;5241;47.830;12.972;2023-04-06T11:19:55;8.30;;;6.17;;
10389;SDS011;5241;47.830;12.972;2023-04-06T11:22:21;8.37;;;6.27;;
10389;SDS011;5241;47.830;12.972;2023-04-06T11:24:47;8.07;;;6.20;;
10389;SDS011;5241;47.830;12.972;2023-04-06T11:27:14;8.50;;;6.30;;
10389;SDS011;5241;47.830;12.972;2023-04-06T11:29:41;6.77;;;5.87;;
10389;SDS011;5241;47.830;12.972;2023-04-06T11:32:08;6.40;;;5.80;;
10389;SDS011;5241;47.830;12.972;2023-04-06T11:34:34;6.50;;;5.40;;
10389;SDS011;5241;47.830;12.972;2023-04-06T11:37:07;6.13;;;5.53;;
10389;SDS011;5241;47.830;12.972;2023-04-06T11:39:38;8.27;;;6.20;;
10389;SDS011;5241;47.830;12.972;2023-04-06T11:42:26;7.17;;;6.37;;
10389;SDS011;5241;47.830;12.972;2023-04-06T11:44:59;7.57;;;5.97;;
10389;SDS011;5241;47.830;12.972;2023-04-06T11:47:28;8.13;;;6.10;;
10389;SDS011;5241;47.830;12.972;2023-04-06T11:49:56;6.57;;;5.93;;
10389;SDS011;5241;47.830;12.972;2023-04-06T11:52:29;6.50;;;5.90;;
10389;SDS011;5241;47.830;12.972;2023-04-06T11:54:56;6.10;;;5.50;;
10389;SDS011;5241;47.830;12.972;2023-04-06T11:57:22;6.87;;;6.13;;
10389;SDS011;5241;47.830;12.972;2023-04-06T11:59:51;6.37;;;5.40;;
10389;SDS011;5241;47.830;12.972;2023-04-06T12:02:17;6.67;;;6.03;;
10389;SDS011;5241;47.830;12.972;2023-04-06T12:04:43;6.97;;;6.27;;
10389;SDS011;5241;47.830;12.972;2023-04-06T12:07:09;6.23;;;5.63;;
10389;SDS011;5241;47.830;12.972;2023-04-06T12:09:35;6.40;;;5.80;;
10389;SDS011;5241;47.830;12.972;2023-04-06T12:12:01;5.90;;;5.40;;
10389;SDS011;5241;47.830;12.972;2023-04-06T12:14:27;6.47;;;5.80;;
10389;SDS011;5241;47.830;12.972;2023-04-06T12:16:55;7.33;;;6.60;;
10389;SDS011;5241;47.830;12.972;2023-04-06T12:19:22;6.37;;;5.77;;
10389;SDS011;5241;47.830;12.972;2023-04-06T12:21:50;7.93;;;6.13;;
10389;SDS011;5241;47.830;12.972;2023-04-06T12:24:17;7.50;;;6.13;;
10389;SDS011;5241;47.830;12.972;2023-04-06T12:26:42;6.60;;;6.00;;
10389;SDS011;5241;47.830;12.972;2023-04-06T12:29:08;9.93;;;6.50;;
10389;SDS011;5241;47.830;12.972;2023-04-06T12:31:37;6.67;;;6.07;;
10389;SDS011;5241;47.830;12.972;2023-04-06T12:34:07;6.73;;;6.13;;
10389;SDS011;5241;47.830;12.972;2023-04-06T12:36:33;6.60;;;5.90;;
10389;SDS011;5241;47.830;12.972;2023-04-06T12:38:59;6.27;;;5.67;;
10389;SDS011;5241;47.830;12.972;2023-04-06T12:41:26;6.03;;;5.33;;
10389;SDS011;5241;47.830;12.972;2023-04-06T12:43:52;6.13;;;5.53;;
10389;SDS011;5241;47.830;12.972;2023-04-06T12:46:18;6.37;;;5.77;;
10389;SDS011;5241;47.830;12.972;2023-04-06T12:48:43;8.97;;;5.40;;
10389;SDS011;5241;47.830;12.972;2023-04-06T12:51:09;6.47;;;5.87;;
10389;SDS011;5241;47.830;12.972;2023-04-06T12:53:35;7.23;;;5.87;;
10389;SDS011;5241;47.830;12.972;2023-04-06T12:56:01;7.13;;;5.73;;
10389;SDS011;5241;47.830;12.972;2023-04-06T12:58:27;6.77;;;5.30;;
10389;SDS011;5241;47.830;12.972;2023-04-06T13:00:54;6.10;;;5.30;;
10389;SDS011;5241;47.830;12.972;2023-04-06T13:03:21;5.13;;;4.50;;
10389;SDS011;5241;47.830;12.972;2023-04-06T13:05:47;6.70;;;5.57;;
10389;SDS011;5241;47.830;12.972;2023-04-06T13:08:14;7.13;;;5.50;;
10389;SDS011;5241;47.830;12.972;2023-04-06T13:10:46;6.00;;;5.43;;
10389;SDS011;5241;47.830;12.972;2023-04-06T13:13:13;6.50;;;5.90;;
10389;SDS011;5241;47.830;12.972;2023-04-06T13:15:43;6.17;;;5.17;;
10389;SDS011;5241;47.830;12.972;2023-04-06T13:18:09;5.90;;;5.30;;
10389;SDS011;5241;47.830;12.972;2023-04-06T13:20:35;6.33;;;5.10;;
10389;SDS011;5241;47.830;12.972;2023-04-06T13:23:01;6.50;;;5.40;;
10389;SDS011;5241;47.830;12.972;2023-04-06T13:25:26;6.50;;;5.90;;
10389;SDS011;5241;47.830;12.972;2023-04-06T13:27:53;6.83;;;6.07;;
10389;SDS011;5241;47.830;12.972;2023-04-06T13:30:20;9.20;;;6.13;;
10389;SDS011;5241;47.830;12.972;2023-04-06T13:32:46;6.13;;;5.53;;
10389;SDS011;5241;47.830;12.972;2023-04-06T13:35:12;6.23;;;5.63;;
10389;SDS011;5241;47.830;12.972;2023-04-06T13:37:37;6.13;;;5.53;;
10389;SDS011;5241;47.830;12.972;2023-04-06T13:40:03;5.97;;;5.37;;
10389;SDS011;5241;47.830;12.972;2023-04-06T13:42:30;6.57;;;5.13;;
10389;SDS011;5241;47.830;12.972;2023-04-06T13:44:56;6.40;;;5.80;;
10389;SDS011;5241;47.830;12.972;2023-04-06T13:47:22;6.17;;;5.57;;
10389;SDS011;5241;47.830;12.972;2023-04-06T13:49:49;6.60;;;5.90;;
10389;SDS011;5241;47.830;12.972;2023-04-06T13:52:16;6.13;;;5.63;;
10389;SDS011;5241;47.830;12.972;2023-04-06T13:54:42;6.87;;;6.10;;
10389;SDS011;5241;47.830;12.972;2023-04-06T13:57:07;5.70;;;5.20;;
10389;SDS011;5241;47.830;12.972;2023-04-06T13:59:36;6.57;;;5.77;;
10389;SDS011;5241;47.830;12.972;2023-04-06T14:02:02;5.97;;;5.37;;
10389;SDS011;5241;47.830;12.972;2023-04-06T14:04:29;6.13;;;5.57;;
10389;SDS011;5241;47.830;12.972;2023-04-06T14:06:55;8.00;;;6.00;;
10389;SDS011;5241;47.830;12.972;2023-04-06T14:09:21;6.33;;;5.80;;
10389;SDS011;5241;47.830;12.972;2023-04-06T14:11:47;5.20;;;4.70;;
10389;SDS011;5241;47.830;12.972;2023-04-06T14:14:12;6.33;;;5.83;;
10389;SDS011;5241;47.830;12.972;2023-04-06T14:16:38;6.40;;;5.10;;
10389;SDS011;5241;47.830;12.972;2023-04-06T14:19:03;6.43;;;5.77;;
10389;SDS011;5241;47.830;12.972;2023-04-06T14:21:29;7.90;;;6.43;;
10389;SDS011;5241;47.830;12.972;2023-04-06T14:23:54;6.50;;;5.90;;
10389;SDS011;5241;47.830;12.972;2023-04-06T14:26:20;6.17;;;5.57;;
10389;SDS011;5241;47.830;12.972;2023-04-06T14:28:46;5.93;;;5.33;;
10389;SDS011;5241;47.830;12.972;2023-04-06T14:31:12;6.23;;;5.63;;
10389;SDS011;5241;47.830;12.972;2023-04-06T14:33:40;6.50;;;5.90;;
10389;SDS011;5241;47.830;12.972;2023-04-06T14:36:06;6.77;;;6.17;;
10389;SDS011;5241;47.830;12.972;2023-04-06T14:38:32;6.73;;;5.90;;